Time;durP1;ratioP1;P1;durP2;ratioP2;P2;SDS_P1;SDS_P2;PMS_P1;PMS_P2;Temp;Humidity;BMP_temperature;BMP_pressure;BME280_temperature;BME280_humidity;BME280_pressure;Samples;Min_cycle;Max_cycle;Signal;HPM_P1;HPM_P2
2023/08/26 00:01:56;;;;;;;19.98;14.88;;;19.30;99.90;;;;;;4982765;28;20344;-69
2023/08/26 00:04:23;;;;;;;20.13;15.70;;;19.30;99.90;;;;;;4954657;28;20210;-69
2023/08/26 00:06:50;;;;;;;21.70;14.82;;;19.10;99.90;;;;;;4990593;28;20650;-69
2023/08/26 00:09:17;;;;;;;20.27;15.02;;;19.90;99.90;;;;;;5005114;28;20700;-69
2023/08/26 00:11:44;;;;;;;23.83;15.23;;;19.10;99.90;;;;;;4992505;28;20199;-69
2023/08/26 00:14:10;;;;;;;19.10;14.98;;;18.60;99.90;;;;;;4993759;28;20198;-69
2023/08/26 00:16:39;;;;;;;20.58;14.30;;;19.10;99.90;;;;;;4997193;28;20202;-69
2023/08/26 00:19:05;;;;;;;17.23;13.90;;;19.10;99.90;;;;;;4965083;28;20213;-69
2023/08/26 00:21:32;;;;;;;20.23;14.32;;;19.00;99.90;;;;;;4989035;28;20213;-69
2023/08/26 00:23:59;;;;;;;19.70;14.30;;;19.10;99.90;;;;;;5001014;28;20226;-69
2023/08/26 00:26:26;;;;;;;22.27;15.30;;;19.00;99.90;;;;;;4998749;28;20229;-69
2023/08/26 00:28:54;;;;;;;18.35;14.50;;;19.10;99.90;;;;;;4992190;28;20214;-69
2023/08/26 00:31:22;;;;;;;18.15;13.57;;;19.10;99.90;;;;;;4990899;28;20783;-69
2023/08/26 00:33:50;;;;;;;18.05;14.15;;;19.20;99.90;;;;;;4978665;28;20204;-70
2023/08/26 00:36:17;;;;;;;18.38;13.45;;;19.10;99.90;;;;;;4975062;28;20272;-69
2023/08/26 00:38:43;;;;;;;22.48;15.45;;;19.10;99.90;;;;;;5004018;28;20548;-69
2023/08/26 00:41:10;;;;;;;20.60;14.95;;;19.20;99.90;;;;;;4992051;28;20514;-69
2023/08/26 00:43:37;;;;;;;21.75;14.68;;;19.20;99.90;;;;;;4994388;28;20214;-69
2023/08/26 00:46:04;;;;;;;25.75;15.60;;;19.00;99.90;;;;;;4989096;28;20721;-69
2023/08/26 00:48:31;;;;;;;20.92;15.57;;;19.10;99.90;;;;;;5001894;28;20199;-69
2023/08/26 00:50:59;;;;;;;23.98;14.57;;;19.20;99.90;;;;;;4950362;28;20703;-69
2023/08/26 00:53:26;;;;;;;20.55;15.50;;;19.20;99.90;;;;;;5004169;28;20209;-69
2023/08/26 00:55:54;;;;;;;30.30;15.32;;;19.00;99.90;;;;;;4989865;28;20197;-69
2023/08/26 00:58:21;;;;;;;25.02;16.00;;;19.20;99.90;;;;;;4991371;28;20210;-69
2023/08/26 01:00:49;;;;;;;22.35;16.05;;;19.10;99.90;;;;;;4997662;28;20694;-69
2023/08/26 01:03:16;;;;;;;26.80;15.52;;;19.20;99.90;;;;;;4997437;28;20501;-69
2023/08/26 01:05:43;;;;;;;18.90;14.15;;;19.10;99.90;;;;;;4996084;28;20228;-70
2023/08/26 01:08:12;;;;;;;22.90;14.93;;;19.10;99.90;;;;;;4964653;28;20977;-69
2023/08/26 01:10:50;;;;;;;21.83;15.38;;;19.00;99.90;;;;;;5003635;28;20704;-70
2023/08/26 01:13:23;;;;;;;22.35;16.40;;;19.10;99.90;;;;;;4990842;28;20605;-69
2023/08/26 01:15:52;;;;;;;19.80;14.65;;;19.00;99.90;;;;;;4988094;28;20202;-69
2023/08/26 01:18:19;;;;;;;20.58;14.63;;;19.00;99.90;;;;;;4997010;28;20217;-70
2023/08/26 01:20:46;;;;;;;22.20;15.65;;;19.00;99.90;;;;;;4996936;28;20205;-70
2023/08/26 01:23:19;;;;;;;25.50;15.88;;;19.00;99.90;;;;;;4963058;28;20412;-70
2023/08/26 01:25:48;;;;;;;22.23;15.50;;;19.00;99.90;;;;;;5000597;28;20226;-69
2023/08/26 01:28:15;;;;;;;21.23;15.82;;;19.00;99.90;;;;;;4990545;28;20206;-70
2023/08/26 01:30:42;;;;;;;24.50;16.20;;;19.10;99.90;;;;;;4997415;28;20233;-69
2023/08/26 01:33:21;;;;;;;23.40;14.30;;;19.00;99.90;;;;;;4972465;28;20367;-69
2023/08/26 01:35:51;;;;;;;24.63;16.17;;;19.10;99.90;;;;;;4999399;28;20200;-69
2023/08/26 01:38:17;;;;;;;22.58;15.43;;;19.00;99.90;;;;;;4958740;28;20498;-69
2023/08/26 01:40:53;;;;;;;20.13;14.45;;;19.00;99.90;;;;;;4997898;28;20244;-70
2023/08/26 01:43:22;;;;;;;22.52;15.10;;;19.10;99.90;;;;;;4985521;28;20851;-70
2023/08/26 01:45:49;;;;;;;22.80;13.63;;;19.10;99.90;;;;;;4994469;28;20198;-69
2023/08/26 01:48:16;;;;;;;19.30;13.90;;;18.90;99.90;;;;;;4986367;28;20202;-70
2023/08/26 01:50:43;;;;;;;20.92;14.40;;;19.00;99.90;;;;;;4995790;28;20229;-69
2023/08/26 01:53:09;;;;;;;19.23;13.18;;;18.90;99.90;;;;;;4959637;28;21984;-70
2023/08/26 01:55:36;;;;;;;21.17;12.60;;;18.90;99.90;;;;;;4995230;28;20201;-69
2023/08/26 01:58:05;;;;;;;18.88;13.70;;;18.90;99.90;;;;;;4995810;28;20202;-69
2023/08/26 02:00:31;;;;;;;18.10;13.38;;;19.00;99.90;;;;;;4988912;28;20206;-70
2023/08/26 02:02:58;;;;;;;21.35;13.60;;;18.90;99.90;;;;;;4988586;28;20202;-69
2023/08/26 02:05:25;;;;;;;19.33;13.40;;;18.80;99.90;;;;;;4993208;28;20208;-70
2023/08/26 02:07:52;;;;;;;21.02;13.48;;;19.00;99.90;;;;;;4999361;28;20210;-70
2023/08/26 02:10:18;;;;;;;19.58;13.85;;;18.90;99.90;;;;;;4957099;28;20517;-69
2023/08/26 02:12:45;;;;;;;19.67;13.10;;;18.90;99.90;;;;;;4998964;28;20201;-70
2023/08/26 02:15:13;;;;;;;21.85;13.95;;;18.90;99.90;;;;;;4983721;28;20202;-69
2023/08/26 02:17:41;;;;;;;18.95;14.02;;;19.00;99.90;;;;;;4990593;28;20722;-69
2023/08/26 02:20:09;;;;;;;22.90;14.10;;;18.80;99.90;;;;;;4995430;28;20954;-69
2023/08/26 02:22:36;;;;;;;18.92;13.85;;;18.80;99.90;;;;;;4999119;28;20212;-69
2023/08/26 02:25:03;;;;;;;19.10;13.80;;;18.90;99.90;;;;;;4958262;28;20267;-70
2023/08/26 02:27:31;;;;;;;17.40;13.30;;;18.80;99.90;;;;;;4988436;28;20198;-69
2023/08/26 02:29:58;;;;;;;18.38;14.23;;;18.80;99.90;;;;;;4991310;28;20254;-70
2023/08/26 02:32:26;;;;;;;18.40;12.88;;;18.80;99.90;;;;;;4987418;28;20210;-69
2023/08/26 02:34:53;;;;;;;17.55;12.77;;;18.80;99.90;;;;;;4994256;28;20210;-70
2023/08/26 02:37:21;;;;;;;18.65;13.13;;;18.90;99.90;;;;;;4997872;28;20700;-69
2023/08/26 02:39:48;;;;;;;19.92;13.90;;;18.80;99.90;;;;;;4962212;28;20210;-69
2023/08/26 02:42:14;;;;;;;22.17;14.05;;;18.80;99.90;;;;;;4997774;28;20202;-70
2023/08/26 02:44:41;;;;;;;21.23;14.48;;;18.90;99.90;;;;;;5001072;28;20201;-70
2023/08/26 02:47:08;;;;;;;19.73;13.57;;;18.90;99.90;;;;;;4990503;28;20214;-70
2023/08/26 02:49:36;;;;;;;20.85;13.82;;;18.90;99.90;;;;;;4990248;28;20194;-69
2023/08/26 02:52:03;;;;;;;22.25;15.23;;;18.80;99.90;;;;;;4993293;28;20198;-69
2023/08/26 02:54:30;;;;;;;22.42;14.10;;;18.90;99.90;;;;;;4998779;28;20201;-69
2023/08/26 02:56:59;;;;;;;20.80;14.65;;;18.80;99.90;;;;;;4960042;28;20210;-69
2023/08/26 02:59:28;;;;;;;19.17;14.27;;;18.80;99.90;;;;;;4996548;28;20202;-70
2023/08/26 03:02:00;;;;;;;25.60;15.73;;;18.90;99.90;;;;;;4988223;28;20225;-70
2023/08/26 03:04:26;;;;;;;22.60;15.38;;;18.60;99.90;;;;;;4991355;28;20214;-69
2023/08/26 03:06:55;;;;;;;20.65;15.80;;;18.70;99.90;;;;;;4996110;28;20198;-70
2023/08/26 03:09:21;;;;;;;22.05;15.73;;;18.70;99.90;;;;;;4995953;28;20210;-69
2023/08/26 03:11:48;;;;;;;20.80;15.05;;;18.70;99.90;;;;;;4960857;28;20229;-70
2023/08/26 03:14:15;;;;;;;20.33;15.40;;;18.70;99.90;;;;;;4997131;28;20205;-69
2023/08/26 03:16:42;;;;;;;24.05;16.10;;;18.60;99.90;;;;;;4994039;28;20583;-70
2023/08/26 03:19:09;;;;;;;23.85;16.23;;;18.60;99.90;;;;;;4995810;28;20683;-69
2023/08/26 03:21:35;;;;;;;27.08;16.05;;;18.60;99.90;;;;;;4982329;28;20412;-69
2023/08/26 03:24:04;;;;;;;22.95;15.10;;;18.60;99.90;;;;;;5005135;28;20236;-69
2023/08/26 03:26:31;;;;;;;21.65;15.35;;;18.40;99.90;;;;;;4984027;28;20220;-70
2023/08/26 03:28:58;;;;;;;24.52;15.38;;;18.50;99.90;;;;;;4986111;28;20237;-69
2023/08/26 03:31:24;;;;;;;21.92;15.40;;;18.50;99.90;;;;;;4996652;28;20226;-69
2023/08/26 03:33:51;;;;;;;21.27;14.13;;;18.40;99.90;;;;;;5001621;28;20221;-69
2023/08/26 03:36:18;;;;;;;24.30;15.68;;;18.30;99.90;;;;;;4982580;28;20971;-69
2023/08/26 03:38:45;;;;;;;22.17;14.35;;;18.30;99.90;;;;;;5003650;28;20259;-69
2023/08/26 03:41:13;;;;;;;18.23;13.90;;;18.30;99.90;;;;;;4999892;28;20207;-69
2023/08/26 03:43:40;;;;;;;22.23;15.55;;;18.40;99.90;;;;;;4965947;28;20272;-69
2023/08/26 03:46:07;;;;;;;23.55;15.52;;;18.30;99.90;;;;;;4991972;28;20209;-69
2023/08/26 03:48:34;;;;;;;20.95;14.70;;;18.20;99.90;;;;;;4997266;28;20201;-69
2023/08/26 03:51:00;;;;;;;19.35;16.20;;;18.30;99.90;;;;;;4980305;28;20233;-69
2023/08/26 03:53:28;;;;;;;27.67;16.10;;;18.20;99.90;;;;;;4998346;28;20276;-70
2023/08/26 03:55:55;;;;;;;19.45;14.57;;;18.10;99.90;;;;;;4997840;28;21884;-69
2023/08/26 03:58:23;;;;;;;22.35;15.32;;;18.20;99.90;;;;;;4963605;28;20676;-69
2023/08/26 04:00:50;;;;;;;24.42;15.82;;;18.30;99.90;;;;;;4996591;28;20884;-69
2023/08/26 04:03:17;;;;;;;22.10;15.15;;;18.10;99.90;;;;;;4987067;28;20198;-69
2023/08/26 04:05:44;;;;;;;21.05;14.15;;;17.90;99.90;;;;;;4988518;28;20203;-69
2023/08/26 04:08:11;;;;;;;20.10;14.57;;;18.10;99.90;;;;;;4993750;28;20198;-69
2023/08/26 04:10:38;;;;;;;20.40;15.05;;;18.10;99.90;;;;;;4998186;28;20222;-69
2023/08/26 04:13:20;;;;;;;18.25;14.18;;;18.00;99.90;;;;;;4961156;28;20698;-70
2023/08/26 04:15:48;;;;;;;20.30;13.40;;;17.90;99.90;;;;;;4995451;28;20301;-69
2023/08/26 04:18:15;;;;;;;19.42;14.15;;;18.00;99.90;;;;;;4989946;28;20586;-69
2023/08/26 04:20:42;;;;;;;20.02;13.27;;;18.10;99.90;;;;;;4997052;28;20449;-69
2023/08/26 04:23:09;;;;;;;17.92;13.45;;;17.90;99.90;;;;;;4994284;28;20232;-69
2023/08/26 04:25:36;;;;;;;20.27;13.80;;;17.90;99.90;;;;;;4991827;28;20230;-69
2023/08/26 04:28:03;;;;;;;24.10;13.93;;;18.00;99.90;;;;;;5001109;28;20206;-69
2023/08/26 04:30:29;;;;;;;15.68;11.65;;;17.90;99.90;;;;;;4954250;28;20233;-70
2023/08/26 04:32:57;;;;;;;18.48;12.30;;;17.90;99.90;;;;;;5001462;28;20413;-69
2023/08/26 04:35:25;;;;;;;14.07;11.48;;;17.90;99.90;;;;;;4991597;28;20795;-69
2023/08/26 04:37:51;;;;;;;15.02;10.85;;;17.80;99.90;;;;;;4988858;28;20202;-69
2023/08/26 04:40:18;;;;;;;14.15;10.60;;;17.70;99.90;;;;;;4995514;28;20205;-69
2023/08/26 04:42:45;;;;;;;13.85;10.70;;;17.70;99.90;;;;;;4995980;28;20201;-69
2023/08/26 04:45:14;;;;;;;16.95;10.45;;;17.60;99.90;;;;;;4951903;28;20782;-70
2023/08/26 04:47:41;;;;;;;16.15;9.90;;;17.60;99.90;;;;;;4993042;28;20724;-69
2023/08/26 04:50:11;;;;;;;15.25;9.57;;;18.30;99.90;;;;;;4987620;28;20399;-69
2023/08/26 04:52:39;;;;;;;13.68;10.00;;;;;;;;;;4990440;28;20700;-69
2023/08/26 04:55:07;;;;;;;13.43;10.02;;;17.60;99.90;;;;;;4998729;28;20222;-69
2023/08/26 04:57:34;;;;;;;13.63;9.57;;;17.50;99.90;;;;;;4999681;28;20671;-69
2023/08/26 05:00:01;;;;;;;13.85;9.82;;;17.50;99.90;;;;;;4957353;28;20226;-69
2023/08/26 05:02:27;;;;;;;13.70;9.80;;;17.40;99.90;;;;;;4989492;28;20680;-69
2023/08/26 05:04:54;;;;;;;18.20;9.25;;;17.40;99.90;;;;;;4990844;28;20704;-69
2023/08/26 05:07:22;;;;;;;14.75;9.65;;;17.30;99.90;;;;;;4998723;28;20572;-69
2023/08/26 05:09:49;;;;;;;14.63;10.38;;;17.30;99.90;;;;;;4991111;28;20933;-69
2023/08/26 05:12:16;;;;;;;13.18;9.60;;;17.40;99.90;;;;;;5001600;28;20716;-69
2023/08/26 05:14:43;;;;;;;12.70;10.27;;;17.40;99.90;;;;;;4957834;28;20691;-69
2023/08/26 05:17:10;;;;;;;14.85;10.10;;;17.40;99.90;;;;;;4990744;28;20213;-69
2023/08/26 05:19:36;;;;;;;13.82;10.07;;;17.30;99.90;;;;;;4994281;28;20656;-69
2023/08/26 05:22:03;;;;;;;13.10;10.05;;;17.30;99.90;;;;;;4998034;28;20304;-69
2023/08/26 05:24:31;;;;;;;12.82;9.57;;;17.40;99.90;;;;;;4995408;28;20236;-70
2023/08/26 05:26:58;;;;;;;14.68;9.48;;;17.30;99.90;;;;;;4994870;28;20521;-69
2023/08/26 05:29:25;;;;;;;13.30;10.05;;;17.40;99.90;;;;;;5000983;28;20199;-70
2023/08/26 05:31:52;;;;;;;17.17;9.68;;;17.40;99.90;;;;;;4959267;28;20317;-69
2023/08/26 05:34:18;;;;;;;11.95;8.95;;;17.30;99.90;;;;;;4989800;28;20207;-69
2023/08/26 05:36:46;;;;;;;10.13;8.13;;;17.30;99.90;;;;;;4986482;28;20209;-69
2023/08/26 05:39:13;;;;;;;15.07;8.35;;;17.40;99.90;;;;;;4996583;28;20205;-69
2023/08/26 05:41:41;;;;;;;12.38;8.15;;;17.30;99.90;;;;;;4971677;28;20834;-69
2023/08/26 05:44:08;;;;;;;10.75;7.95;;;17.30;99.90;;;;;;4993991;28;20207;-69
2023/08/26 05:46:35;;;;;;;11.77;7.28;;;17.30;99.90;;;;;;4949609;28;20211;-69
2023/08/26 05:49:01;;;;;;;10.70;7.43;;;17.30;99.90;;;;;;4984532;28;20431;-69
2023/08/26 05:51:28;;;;;;;12.85;7.00;;;17.30;99.90;;;;;;4990324;28;20226;-69
2023/08/26 05:53:55;;;;;;;9.60;7.00;;;17.30;99.90;;;;;;4993711;28;20201;-70
2023/08/26 05:56:22;;;;;;;14.40;7.57;;;17.30;99.90;;;;;;4981021;28;20314;-69
2023/08/26 05:58:50;;;;;;;9.90;6.72;;;17.20;99.90;;;;;;5002207;28;20205;-69
2023/08/26 06:01:17;;;;;;;9.82;6.80;;;17.20;99.90;;;;;;4957469;28;20300;-69
2023/08/26 06:03:43;;;;;;;14.82;6.93;;;17.20;99.90;;;;;;4988862;28;22423;-69
2023/08/26 06:06:10;;;;;;;11.43;7.15;;;17.20;99.90;;;;;;4981073;28;20414;-69
2023/08/26 06:08:37;;;;;;;8.32;6.57;;;17.20;99.90;;;;;;5001159;28;20206;-69
2023/08/26 06:11:04;;;;;;;8.35;5.68;;;16.10;99.90;;;;;;4986188;28;20222;-69
2023/08/26 06:13:30;;;;;;;8.98;6.60;;;17.30;99.90;;;;;;4991603;28;20194;-69
2023/08/26 06:15:59;;;;;;;10.73;6.18;;;17.30;99.90;;;;;;4978945;28;20198;-69
2023/08/26 06:18:26;;;;;;;12.63;6.72;;;17.40;99.90;;;;;;4984545;28;20391;-69
2023/08/26 06:20:53;;;;;;;10.32;6.53;;;17.40;99.90;;;;;;4986702;28;20198;-69
2023/08/26 06:23:20;;;;;;;13.15;6.93;;;17.30;99.90;;;;;;4985680;28;21105;-69
2023/08/26 06:25:53;;;;;;;9.45;6.72;;;17.30;99.90;;;;;;4990055;28;20236;-69
2023/08/26 06:28:20;;;;;;;12.18;7.45;;;17.30;99.90;;;;;;4995483;28;20769;-69
2023/08/26 06:30:47;;;;;;;8.52;5.95;;;17.30;99.90;;;;;;5004681;28;20402;-69
2023/08/26 06:33:15;;;;;;;8.65;6.20;;;17.20;99.90;;;;;;4957237;28;20890;-70
2023/08/26 06:35:47;;;;;;;7.95;5.88;;;17.20;99.90;;;;;;4995016;28;20775;-69
2023/08/26 06:38:14;;;;;;;11.15;5.93;;;17.20;99.90;;;;;;4984755;28;20663;-69
2023/08/26 06:40:40;;;;;;;9.63;6.45;;;17.20;99.90;;;;;;5000678;28;20206;-69
2023/08/26 06:43:07;;;;;;;12.65;6.03;;;17.20;99.90;;;;;;4982109;28;20201;-69
2023/08/26 06:45:34;;;;;;;11.38;5.90;;;17.20;99.90;;;;;;4997725;28;20202;-69
2023/08/26 06:48:01;;;;;;;8.02;5.38;;;17.20;99.90;;;;;;4962205;28;20209;-69
2023/08/26 06:50:29;;;;;;;6.45;5.43;;;17.20;99.90;;;;;;5002114;28;20209;-69
2023/08/26 06:52:56;;;;;;;9.75;5.55;;;17.20;99.90;;;;;;4999633;28;20226;-69
2023/08/26 06:55:23;;;;;;;13.55;5.63;;;17.20;99.90;;;;;;4993444;28;20477;-69
2023/08/26 06:57:50;;;;;;;7.43;4.55;;;17.40;99.90;;;;;;4994856;28;20723;-69
2023/08/26 07:00:19;;;;;;;4.68;4.03;;;17.40;99.90;;;;;;4996966;28;20314;-69
2023/08/26 07:02:46;;;;;;;5.15;3.47;;;17.40;99.90;;;;;;5002288;28;20207;-69
2023/08/26 07:05:12;;;;;;;6.32;3.92;;;17.40;99.90;;;;;;4955416;28;20537;-69
2023/08/26 07:07:40;;;;;;;9.40;3.45;;;17.40;99.90;;;;;;4993299;28;20647;-69
2023/08/26 07:10:08;;;;;;;6.05;4.15;;;17.50;99.90;;;;;;4988996;28;20232;-69
2023/08/26 07:12:35;;;;;;;8.25;4.00;;;17.50;99.90;;;;;;4984165;28;20225;-69
2023/08/26 07:15:01;;;;;;;8.00;4.00;;;17.40;99.90;;;;;;5002139;28;20205;-69
2023/08/26 07:17:29;;;;;;;5.78;3.65;;;17.40;99.90;;;;;;4997147;28;20199;-69
2023/08/26 07:19:56;;;;;;;4.65;3.75;;;17.40;99.90;;;;;;4968451;28;20201;-69
2023/08/26 07:22:23;;;;;;;4.90;3.50;;;17.40;99.90;;;;;;5006528;28;20539;-69
2023/08/26 07:24:52;;;;;;;4.28;3.25;;;17.40;99.90;;;;;;4998301;28;20206;-69
2023/08/26 07:27:19;;;;;;;4.75;2.85;;;17.50;99.90;;;;;;4989593;28;20601;-69
2023/08/26 07:29:45;;;;;;;3.40;2.45;;;17.60;99.90;;;;;;5005555;28;20224;-69
2023/08/26 07:32:12;;;;;;;3.78;2.20;;;17.60;99.90;;;;;;4985840;28;21005;-69
2023/08/26 07:34:39;;;;;;;4.25;2.63;;;17.60;99.90;;;;;;4966932;28;20268;-69
2023/08/26 07:37:06;;;;;;;3.28;2.05;;;17.60;99.90;;;;;;5001154;28;20217;-69
2023/08/26 07:39:33;;;;;;;5.15;2.47;;;17.50;99.90;;;;;;4984886;28;20210;-69
2023/08/26 07:42:03;;;;;;;3.53;1.90;;;17.50;99.90;;;;;;5000076;28;20202;-69
2023/08/26 07:44:30;;;;;;;2.20;1.80;;;17.60;99.90;;;;;;4991564;28;20202;-69
2023/08/26 07:46:57;;;;;;;5.90;2.38;;;17.70;99.90;;;;;;5000091;28;20229;-69
2023/08/26 07:49:24;;;;;;;7.00;2.08;;;17.70;99.90;;;;;;4976153;28;20585;-69
2023/08/26 07:51:50;;;;;;;2.50;2.00;;;17.70;99.90;;;;;;4996556;28;20683;-69
2023/08/26 07:54:17;;;;;;;2.97;1.70;;;17.70;99.90;;;;;;4993057;28;20893;-69
2023/08/26 07:56:44;;;;;;;3.00;2.00;;;17.70;99.90;;;;;;4997391;28;20411;-69
2023/08/26 07:59:12;;;;;;;3.63;2.20;;;17.80;99.90;;;;;;4991342;28;20222;-69
2023/08/26 08:01:39;;;;;;;2.00;1.70;;;17.70;99.90;;;;;;4975002;28;22076;-69
2023/08/26 08:04:06;;;;;;;3.35;1.90;;;17.70;99.90;;;;;;4992357;28;20498;-69
2023/08/26 08:06:33;;;;;;;4.05;1.83;;;17.70;99.90;;;;;;4958564;28;20398;-69
2023/08/26 08:09:00;;;;;;;3.50;2.03;;;17.80;99.90;;;;;;4990974;28;20229;-69
2023/08/26 08:11:27;;;;;;;3.35;1.73;;;17.80;99.90;;;;;;4978081;28;20234;-69
2023/08/26 08:13:54;;;;;;;4.15;2.42;;;17.80;99.90;;;;;;5001129;28;20225;-69
2023/08/26 08:16:22;;;;;;;2.88;1.85;;;17.80;99.90;;;;;;4981641;28;20544;-68
2023/08/26 08:18:48;;;;;;;5.55;2.28;;;17.80;99.90;;;;;;5006865;28;20438;-69
2023/08/26 08:21:15;;;;;;;2.42;2.03;;;17.70;99.90;;;;;;4963510;28;20214;-69
2023/08/26 08:23:43;;;;;;;3.08;1.88;;;17.70;99.90;;;;;;4992105;28;20329;-69
2023/08/26 08:26:11;;;;;;;6.15;2.15;;;17.80;99.90;;;;;;4999767;28;20850;-69
2023/08/26 08:28:39;;;;;;;2.33;1.75;;;17.80;99.90;;;;;;4993685;28;20206;-69
2023/08/26 08:31:06;;;;;;;2.75;2.00;;;;;;;;;;4990375;28;20225;-69
2023/08/26 08:33:34;;;;;;;3.35;2.20;;;17.80;99.90;;;;;;4997655;28;21383;-68
2023/08/26 08:36:01;;;;;;;8.90;2.35;;;17.90;99.90;;;;;;5001893;28;20280;-69
2023/08/26 08:38:28;;;;;;;3.22;2.10;;;18.00;99.90;;;;;;4950749;28;20273;-69
2023/08/26 08:40:55;;;;;;;5.43;2.45;;;17.80;99.90;;;;;;5002707;28;20198;-68
2023/08/26 08:43:22;;;;;;;4.43;2.50;;;18.00;99.90;;;;;;4981472;28;20233;-69
2023/08/26 08:45:50;;;;;;;10.55;2.75;;;18.00;99.90;;;;;;4994902;28;20202;-69
2023/08/26 08:48:18;;;;;;;7.82;2.80;;;18.20;99.90;;;;;;5000008;28;20210;-69
2023/08/26 08:50:47;;;;;;;4.35;2.60;;;18.30;99.90;;;;;;5002873;28;20195;-69
2023/08/26 08:53:17;;;;;;;4.68;2.50;;;18.40;99.90;;;;;;4953829;28;20225;-69
2023/08/26 08:55:44;;;;;;;7.93;2.40;;;18.40;99.90;;;;;;4992176;28;20230;-69
2023/08/26 08:58:12;;;;;;;5.60;2.35;;;18.30;99.90;;;;;;4996774;28;20209;-68
2023/08/26 09:00:40;;;;;;;5.18;2.03;;;18.30;99.90;;;;;;4983906;28;20198;-68
2023/08/26 09:03:09;;;;;;;3.65;2.17;;;18.20;99.90;;;;;;4990332;28;20218;-68
2023/08/26 09:05:36;;;;;;;4.85;2.53;;;18.20;99.90;;;;;;4984233;28;20225;-68
2023/08/26 09:08:07;;;;;;;3.47;2.40;;;18.20;99.90;;;;;;4940095;28;20717;-68
2023/08/26 09:10:34;;;;;;;3.53;2.03;;;18.10;99.90;;;;;;4981355;28;20735;-68
2023/08/26 09:13:03;;;;;;;7.60;2.60;;;18.10;99.90;;;;;;4989869;28;20234;-68
2023/08/26 09:15:30;;;;;;;2.45;1.95;;;18.00;99.90;;;;;;4972891;28;20230;-69
2023/08/26 09:17:58;;;;;;;3.78;2.53;;;18.00;99.90;;;;;;4987457;28;22495;-68
2023/08/26 09:20:26;;;;;;;6.57;2.90;;;18.00;99.90;;;;;;4986154;28;20202;-68
2023/08/26 09:23:05;;;;;;;4.70;2.83;;;17.90;99.90;;;;;;4962629;28;20230;-69
2023/08/26 09:25:32;;;;;;;3.75;2.42;;;17.90;99.90;;;;;;4981895;28;25906;-68
2023/08/26 09:27:59;;;;;;;5.28;2.60;;;17.80;99.90;;;;;;4961025;28;20818;-69
2023/08/26 09:30:26;;;;;;;3.92;2.60;;;17.70;99.90;;;;;;4986956;28;20222;-69
2023/08/26 09:32:55;;;;;;;4.93;2.33;;;17.70;99.90;;;;;;4973537;28;20434;-69
2023/08/26 09:35:22;;;;;;;5.03;2.65;;;17.70;99.90;;;;;;4998698;28;20574;-68
2023/08/26 09:37:57;;;;;;;6.30;3.28;;;17.60;99.90;;;;;;5000778;28;20745;-68
2023/08/26 09:40:26;;;;;;;5.78;2.95;;;17.60;99.90;;;;;;4950913;28;20213;-69
2023/08/26 09:42:53;;;;;;;6.32;3.05;;;17.60;99.90;;;;;;4967694;28;20210;-68
2023/08/26 09:45:20;;;;;;;3.38;2.72;;;17.80;99.90;;;;;;4970133;28;20665;-68
2023/08/26 09:47:49;;;;;;;2.55;2.35;;;17.80;99.90;;;;;;4978257;28;20203;-68
2023/08/26 09:50:16;;;;;;;2.40;2.20;;;17.80;99.90;;;;;;4998973;28;20202;-68
2023/08/26 09:52:45;;;;;;;4.10;2.15;;;17.90;99.90;;;;;;4991978;28;20260;-68
2023/08/26 09:55:12;;;;;;;3.83;2.30;;;18.00;99.90;;;;;;4924793;28;20226;-68
2023/08/26 09:57:41;;;;;;;2.40;1.88;;;18.00;99.90;;;;;;4968709;28;20205;-68
2023/08/26 10:00:11;;;;;;;1.67;1.58;;;18.20;99.90;;;;;;4982793;28;20673;-68
2023/08/26 10:02:39;;;;;;;2.60;1.70;;;18.40;99.90;;;;;;4977529;28;22221;-68
2023/08/26 10:05:11;;;;;;;2.65;1.42;;;18.50;99.90;;;;;;4979082;28;20278;-68
2023/08/26 10:07:40;;;;;;;2.33;1.55;;;18.60;99.90;;;;;;4993496;28;20210;-68
2023/08/26 10:10:14;;;;;;;4.40;2.28;;;18.70;99.90;;;;;;4985437;28;20217;-68
2023/08/26 10:12:44;;;;;;;2.72;1.88;;;18.60;99.90;;;;;;4964444;28;20352;-68
2023/08/26 10:15:13;;;;;;;6.18;2.15;;;18.80;99.90;;;;;;4989355;28;21661;-68
2023/08/26 10:17:44;;;;;;;3.65;2.00;;;18.80;99.90;;;;;;4992103;28;20782;-68
2023/08/26 10:20:12;;;;;;;6.50;4.53;;;18.70;99.90;;;;;;4978991;28;20218;-68
2023/08/26 10:22:40;;;;;;;4.82;4.10;;;18.60;99.90;;;;;;4987775;28;20487;-68
2023/08/26 10:25:10;;;;;;;6.93;4.28;;;18.60;99.90;;;;;;4991434;28;20225;-68
2023/08/26 10:27:38;;;;;;;7.00;4.95;;;18.60;99.90;;;;;;4980164;28;20453;-68
2023/08/26 10:30:08;;;;;;;7.13;4.93;;;18.60;99.90;;;;;;4999915;28;20260;-68
2023/08/26 10:32:43;;;;;;;5.40;4.90;;;18.60;99.90;;;;;;4983339;28;20322;-68
2023/08/26 10:35:12;;;;;;;5.47;4.65;;;18.60;99.90;;;;;;4974155;28;20371;-68
2023/08/26 10:37:39;;;;;;;6.00;4.78;;;18.60;99.90;;;;;;4993711;28;20230;-68
2023/08/26 10:40:08;;;;;;;6.90;5.90;;;18.60;99.90;;;;;;4995870;28;20471;-68
2023/08/26 10:42:36;;;;;;;6.20;5.28;;;18.70;99.90;;;;;;4965743;28;20230;-68
2023/08/26 10:45:03;;;;;;;7.30;5.10;;;18.70;99.90;;;;;;5006372;28;20202;-68
2023/08/26 10:47:38;;;;;;;9.40;6.20;;;18.80;99.90;;;;;;4991257;28;25465;-68
2023/08/26 10:50:15;;;;;;;7.07;5.53;;;18.90;99.90;;;;;;4994833;28;20208;-68
2023/08/26 10:52:43;;;;;;;9.45;7.40;;;18.90;99.90;;;;;;4989984;28;20217;-68
2023/08/26 10:55:13;;;;;;;11.13;6.85;;;19.00;99.90;;;;;;4987328;28;20582;-68
2023/08/26 10:58:09;;;;;;;9.88;6.65;;;19.00;99.90;;;;;;4950375;28;20712;-68
2023/08/26 11:00:37;;;;;;;8.45;6.30;;;19.10;99.90;;;;;;4996409;28;20198;-68
2023/08/26 11:03:08;;;;;;;8.15;6.28;;;19.10;99.90;;;;;;4990935;28;20210;-68
2023/08/26 11:05:36;;;;;;;7.10;6.40;;;19.30;99.90;;;;;;4986876;28;20204;-68
2023/08/26 11:08:03;;;;;;;9.50;7.35;;;19.30;99.90;;;;;;4997685;28;20202;-68
2023/08/26 11:10:32;;;;;;;6.75;5.90;;;19.40;99.90;;;;;;5002573;28;20206;-68
2023/08/26 11:12:59;;;;;;;12.15;6.80;;;19.50;99.90;;;;;;4950699;28;20222;-67
2023/08/26 11:15:32;;;;;;;8.82;6.63;;;19.50;99.90;;;;;;4976189;28;20572;-68
2023/08/26 11:17:59;;;;;;;8.27;5.80;;;19.50;99.90;;;;;;4988212;28;20230;-68
2023/08/26 11:20:29;;;;;;;8.02;5.63;;;19.50;99.90;;;;;;4965404;28;20618;-68
2023/08/26 11:22:56;;;;;;;7.45;5.35;;;19.60;99.90;;;;;;5000226;28;20266;-68
2023/08/26 11:25:23;;;;;;;7.65;4.75;;;19.60;99.90;;;;;;4995662;28;20217;-68
2023/08/26 11:27:51;;;;;;;7.18;4.15;;;19.60;99.90;;;;;;4955068;28;20752;-68
2023/08/26 11:30:17;;;;;;;7.47;5.00;;;19.50;99.90;;;;;;4986742;28;20229;-68
2023/08/26 11:32:49;;;;;;;8.93;4.28;;;19.50;99.90;;;;;;4994924;28;20241;-68
2023/08/26 11:35:16;;;;;;;9.13;4.07;;;19.50;99.90;;;;;;4988414;28;20905;-67
2023/08/26 11:37:47;;;;;;;9.77;4.45;;;19.50;99.90;;;;;;4992323;28;20831;-68
2023/08/26 11:40:15;;;;;;;4.35;3.95;;;19.50;99.90;;;;;;5001008;28;20209;-67
2023/08/26 11:42:42;;;;;;;6.78;4.65;;;19.50;99.90;;;;;;4999365;28;20206;-67
2023/08/26 11:45:09;;;;;;;6.68;3.70;;;19.40;99.90;;;;;;4962847;28;20209;-67
2023/08/26 11:47:37;;;;;;;7.40;3.95;;;19.40;99.90;;;;;;4999800;28;20304;-67
2023/08/26 11:50:04;;;;;;;4.85;3.67;;;19.20;99.90;;;;;;4986899;28;20253;-67
2023/08/26 11:52:35;;;;;;;4.60;4.13;;;19.20;99.90;;;;;;4980734;28;20717;-67
2023/08/26 11:55:04;;;;;;;8.50;4.13;;;19.10;99.90;;;;;;4999993;28;20225;-68
2023/08/26 11:57:35;;;;;;;5.07;3.78;;;19.10;99.90;;;;;;4993302;28;20205;-67
2023/08/26 12:00:12;;;;;;;6.65;4.05;;;19.10;99.90;;;;;;4962576;28;20214;-68
2023/08/26 12:02:41;;;;;;;6.22;4.63;;;19.00;99.90;;;;;;4985758;28;20722;-67
2023/08/26 12:05:09;;;;;;;6.95;4.35;;;19.10;99.90;;;;;;4982735;28;20203;-68
2023/08/26 12:07:35;;;;;;;5.70;4.22;;;19.20;99.90;;;;;;4989816;28;20311;-67
2023/08/26 12:10:11;;;;;;;6.85;4.10;;;19.20;99.90;;;;;;4982627;28;20642;-68
2023/08/26 12:12:39;;;;;;;6.00;4.57;;;19.30;99.90;;;;;;4987819;28;21275;-67
2023/08/26 12:15:06;;;;;;;6.45;4.32;;;19.30;99.90;;;;;;4957722;28;21628;-68
2023/08/26 12:17:41;;;;;;;4.57;4.07;;;19.30;99.90;;;;;;5005781;28;20271;-67
2023/08/26 12:20:24;;;;;;;5.32;4.32;;;19.50;99.90;;;;;;4995098;28;20209;-67
2023/08/26 12:22:51;;;;;;;6.03;3.92;;;19.40;99.90;;;;;;4987909;28;20910;-67
2023/08/26 12:25:24;;;;;;;3.97;3.55;;;19.50;99.90;;;;;;4998112;28;20237;-67
2023/08/26 12:27:51;;;;;;;7.38;4.25;;;19.60;99.90;;;;;;4995716;28;20690;-67
2023/08/26 12:30:19;;;;;;;4.80;3.95;;;19.50;99.90;;;;;;4998402;28;20225;-67
2023/08/26 12:32:46;;;;;;;5.95;3.42;;;19.50;99.90;;;;;;4950113;28;20216;-67
2023/08/26 12:35:13;;;;;;;4.90;3.55;;;19.60;99.90;;;;;;4993948;28;20226;-67
2023/08/26 12:37:40;;;;;;;7.13;3.92;;;;;;;;;;4986858;28;20225;-67
2023/08/26 12:40:08;;;;;;;3.75;2.97;;;19.60;99.90;;;;;;5003455;28;20599;-67
2023/08/26 12:42:36;;;;;;;10.82;3.47;;;19.60;99.90;;;;;;4992948;28;20236;-67